Latest Coastal Weather Observations for Point Fawcett

IDD60701

Issued at 7:11 am CST Monday 25 May 2015 (issued every 10 minutes, with the page automatically refreshed every 10 minutes)

About coastal observations | Map of coastal stations | Coastal observations for NT | Marine services | Other Formats
Station Details ID: 200731 Name: POINT FAWCETT Lat: -11.76 Lon: 130.03 Height: 6.5 m
Data from the previous 72 hours. | See also: Recent months at Point Fawcett
Date/Time
CST
Temp

°C
Wind Pressure Rain
since 9am
mm
Weather Cloud Vis
km
Sea
Height
m
Swell
Dir
 
Speed
knots
Gust
knots
hPa Trend Height
m
Period
s
Dir
25/07:00am 16.3 ESE 5 5 1015.1 - - - - - - - - -
25/06:30am 16.2 ESE 3 4 1014.8 - - - - - - - - -
25/06:00am 16.2 ESE 4 4 1014.4 - - - - - - - - -
25/05:30am 16.3 ESE 4 5 1014.2 - - - - - - - - -
25/05:00am 16.4 ESE 5 6 1014.3 - - - - - - - - -
25/04:30am 16.4 ESE 5 6 1014.2 - - - - - - - - -
25/04:00am 16.6 ESE 5 6 1014.2 - - - - - - - - -
25/03:30am 16.7 ESE 5 6 1014.4 - - - - - - - - -
25/03:00am 17.0 ESE 5 7 1014.5 - - - - - - - - -
25/02:30am 16.8 ESE 5 6 1015.1 - - - - - - - - -
25/02:00am 17.2 ESE 5 6 1015.1 - - - - - - - - -
25/01:30am 17.0 E 6 8 1015.2 - - - - - - - - -
25/01:00am 17.1 ESE 5 6 1015.4 - - - - - - - - -
25/12:30am 17.5 SE 5 6 1015.4 - - - - - - - - -
25/12:00am 18.0 SE 5 7 1015.3 - - - - - - - - -
 
Date/Time
CST
Temp

°C
Wind Pressure Rain
since 9am
mm
Weather Cloud Vis
km
Sea
Height
m
Swell
Dir
 
Speed
knots
Gust
knots
hPa Trend Height
m
Period
s
Dir
24/11:30pm 18.9 ESE 5 6 1015.4 - - - - - - - - -
24/11:00pm 21.3 ENE 6 8 1015.1 - - - - - - - - -
24/10:30pm 19.9 E 6 7 1015.1 - - - - - - - - -
24/10:00pm 22.0 E 5 7 1015.1 - - - - - - - - -
24/09:30pm 22.4 E 6 8 1015.0 - - - - - - - - -
24/09:00pm 22.1 E 6 8 1014.8 - - - - - - - - -
24/08:30pm 22.1 ESE 6 8 1014.5 - - - - - - - - -
24/08:00pm 22.6 ESE 6 7 1014.1 - - - - - - - - -
24/07:30pm 22.4 ESE 5 7 1013.7 - - - - - - - - -
24/07:00pm 23.2 ESE 5 7 1013.3 - - - - - - - - -
24/06:30pm 25.4 ESE 5 7 1013.1 - - - - - - - - -
24/06:00pm 27.5 ESE 5 7 1012.7 - - - - - - - - -
24/05:30pm 28.6 ESE 7 11 1012.5 - - - - - - - - -
24/05:00pm 29.2 SE 7 9 1012.2 - - - - - - - - -
24/04:30pm 30.0 SE 6 10 1012.1 - - - - - - - - -
24/04:00pm 30.5 ESE 7 11 1011.9 - - - - - - - - -
24/03:30pm 31.0 ESE 6 10 1012.0 - - - - - - - - -
24/03:00pm 31.0 ESE 6 12 1012.1 - - - - - - - - -
24/02:30pm 30.9 ESE 6 9 1012.2 - - - - - - - - -
24/02:00pm 31.3 ESE 6 11 1012.6 - - - - - - - - -
24/01:30pm 30.8 ESE 8 12 1013.1 - - - - - - - - -
24/01:00pm 30.5 E 8 13 1013.4 - - - - - - - - -
24/12:30pm 30.6 E 8 13 1013.7 - - - - - - - - -
24/12:00pm 30.7 ESE 6 11 1013.8 - - - - - - - - -
24/11:30am 30.0 E 8 15 1014.4 - - - - - - - - -
24/11:00am 29.7 ESE 7 15 1014.6 - - - - - - - - -
24/10:30am 29.2 ESE 8 13 1015.0 - - - - - - - - -
24/10:00am 28.5 ESE 8 13 1015.1 - - - - - - - - -
24/09:30am 27.4 ESE 5 8 1015.2 - - - - - - - - -
24/09:00am 26.1 E 5 7 1015.1 - - - - - - - - -
24/08:30am 23.6 E 4 6 1014.9 - - - - - - - - -
24/08:00am 20.2 E 4 5 1014.7 - - - - - - - - -
24/07:30am 18.7 E 5 6 1014.3 - - - - - - - - -
24/07:00am 18.4 E 4 6 1014.0 - - - - - - - - -
24/06:30am 18.5 E 5 6 1013.7 - - - - - - - - -
24/06:00am 19.1 E 5 6 1013.5 - - - - - - - - -
24/05:30am 19.4 E 5 6 1013.5 - - - - - - - - -
24/05:00am 19.9 E 5 7 1013.5 - - - - - - - - -
24/04:30am 20.2 E 5 7 1013.4 - - - - - - - - -
24/04:00am 21.1 E 5 7 1013.3 - - - - - - - - -
24/03:30am 20.9 E 6 8 1013.6 - - - - - - - - -
24/03:00am 20.4 E 6 7 1013.6 - - - - - - - - -
24/02:30am 20.6 E 6 7 1013.8 - - - - - - - - -
24/02:00am 19.6 E 6 6 1014.0 - - - - - - - - -
24/01:30am 19.3 E 5 6 1014.2 - - - - - - - - -
24/01:00am 19.2 SSE 4 5 1014.0 - - - - - - - - -
24/12:30am 19.4 SSE 4 4 1014.3 - - - - - - - - -
24/12:00am 19.5 SSE 4 5 1014.4 - - - - - - - - -
 
Date/Time
CST
Temp

°C
Wind Pressure Rain
since 9am
mm
Weather Cloud Vis
km
Sea
Height
m
Swell
Dir
 
Speed
knots
Gust
knots
hPa Trend Height
m
Period
s
Dir
23/11:30pm 19.6 SSE 4 5 1014.5 - - - - - - - - -
23/11:00pm 19.7 SSE 4 5 1014.4 - - - - - - - - -
23/10:30pm 19.8 SSE 4 5 1014.3 - - - - - - - - -
23/10:00pm 20.0 SSE 4 5 1014.3 - - - - - - - - -
23/09:30pm 20.3 SSE 4 5 1014.1 - - - - - - - - -
23/09:00pm 20.5 SE 4 5 1013.8 - - - - - - - - -
23/08:30pm 20.8 SE 5 6 1013.7 - - - - - - - - -
23/08:00pm 21.5 SE 4 5 1013.3 - - - - - - - - -
23/07:30pm 22.0 SE 4 5 1013.1 - - - - - - - - -
23/07:00pm 23.6 SE 4 5 1012.8 - - - - - - - - -
23/06:30pm 25.8 SSE 3 5 1012.7 - - - - - - - - -
23/06:00pm 28.4 SE 4 6 1012.4 - - - - - - - - -
23/05:30pm 29.4 SE 5 8 1012.3 - - - - - - - - -
23/05:00pm 30.0 ESE 7 10 1012.1 - - - - - - - - -
23/04:30pm 30.3 SE 7 10 1011.9 - - - - - - - - -
23/04:00pm 30.8 SE 8 14 1012.1 - - - - - - - - -
23/03:30pm 31.2 ESE 6 9 1012.3 - - - - - - - - -
23/03:00pm 30.7 ESE 7 13 1012.4 - - - - - - - - -
23/02:30pm 31.2 ESE 8 13 1012.7 - - - - - - - - -
23/02:00pm 31.2 ESE 8 16 1013.1 - - - - - - - - -
23/01:30pm 30.9 ESE 10 16 1013.4 - - - - - - - - -
23/01:00pm 30.9 E 10 20 1013.9 - - - - - - - - -
23/12:30pm 30.5 ESE 10 16 1014.4 - - - - - - - - -
23/12:00pm 30.2 E 11 18 1014.7 - - - - - - - - -
23/11:30am 30.0 ESE 8 17 1015.3 - - - - - - - - -
23/11:00am 29.1 ESE 12 19 1015.7 - - - - - - - - -
23/10:30am 29.4 ESE 8 15 1016.1 - - - - - - - - -
23/10:00am 28.9 ESE 8 15 1016.1 - - - - - - - - -
23/09:30am 27.9 ESE 9 14 1016.1 - - - - - - - - -
23/09:00am 27.3 E 6 11 1015.8 - - - - - - - - -
23/08:30am 25.5 E 5 7 1015.7 - - - - - - - - -
23/08:00am 23.8 ESE 4 5 1015.5 - - - - - - - - -
23/07:30am 22.5 ESE 4 5 1015.2 - - - - - - - - -
23/07:00am 22.6 ESE 5 6 1014.7 - - - - - - - - -
23/06:30am 22.8 E 5 6 1014.6 - - - - - - - - -
23/06:00am 22.3 E 4 6 1014.3 - - - - - - - - -
23/05:30am 22.3 E 5 6 1014.4 - - - - - - - - -
23/05:00am 21.6 E 4 5 1014.4 - - - - - - - - -
23/04:30am 21.5 ENE 5 7 1014.4 - - - - - - - - -
23/04:00am 20.6 ESE 4 5 1014.3 - - - - - - - - -
23/03:30am 20.4 SE 4 5 1014.3 - - - - - - - - -
23/03:00am 20.4 SE 4 5 1014.3 - - - - - - - - -
23/02:30am 20.5 SE 4 5 1014.4 - - - - - - - - -
23/02:00am 20.4 ESE 4 5 1014.5 - - - - - - - - -
23/01:30am 20.5 SE 4 5 1014.6 - - - - - - - - -
23/01:00am 20.6 SE 4 5 1014.5 - - - - - - - - -
23/12:30am 20.7 SE 4 4 1014.5 - - - - - - - - -
23/12:00am 20.9 SSE 4 5 1014.7 - - - - - - - - -
 
Date/Time
CST
Temp

°C
Wind Pressure Rain
since 9am
mm
Weather Cloud Vis
km
Sea
Height
m
Swell
Dir
 
Speed
knots
Gust
knots
hPa Trend Height
m
Period
s
Dir
22/11:30pm 21.1 ESE 3 4 1015.1 - - - - - - - - -
22/11:00pm 21.2 SSE 4 4 1015.3 - - - - - - - - -
22/10:30pm 21.4 SSE 4 4 1015.2 - - - - - - - - -
22/10:00pm 21.6 SE 3 4 1015.1 - - - - - - - - -
22/09:30pm 21.8 ESE 3 3 1014.9 - - - - - - - - -
22/09:00pm 22.1 E 4 4 1014.6 - - - - - - - - -
22/08:30pm 22.5 E 4 4 1014.5 - - - - - - - - -
22/08:00pm 22.9 E 4 5 1014.2 - - - - - - - - -
22/07:30pm 23.7 E 4 5 1014.0 - - - - - - - - -
22/07:00pm 25.0 ESE 4 5 1013.7 - - - - - - - - -
22/06:30pm 27.3 ESE 4 6 1013.4 - - - - - - - - -
22/06:00pm 29.3 E 6 11 1012.9 - - - - - - - - -
22/05:30pm 30.1 E 9 15 1013.0 - - - - - - - - -
22/05:00pm 30.4 ESE 10 15 1012.5 - - - - - - - - -
22/04:30pm 30.0 ESE 8 15 1012.3 - - - - - - - - -
22/04:00pm 30.8 ESE 11 19 1012.3 - - - - - - - - -
22/03:30pm 30.9 SE 9 17 1012.7 - - - - - - - - -
22/03:00pm 30.2 SE 8 14 1012.9 - - - - - - - - -
22/02:30pm 30.0 SE 8 14 1013.3 - - - - - - - - -
22/02:00pm 29.6 SE 8 15 1013.3 - - - - - - - - -
22/01:30pm 30.4 SE 8 14 1013.8 - - - - - - - - -
22/01:00pm 31.5 SE 8 15 1013.9 - - - - - - - - -
22/12:30pm 31.6 S 7 12 1014.3 - - - - - - - - -
22/12:00pm 31.8 ESE 6 10 1014.4 - - - - - - - - -
22/11:30am 31.8 E 5 8 1014.7 - - - - - - - - -
22/11:00am 31.2 E 6 11 1015.1 - - - - - - - - -
22/10:30am 30.5 E 6 9 1015.4 - - - - - - - - -
22/10:00am 29.5 E 7 11 1015.7 - - - - - - - - -
22/09:30am 28.9 ENE 6 9 1015.6 - - - - - - - - -
22/09:00am 27.6 ENE 5 7 1015.4 - - - - - - - - -
22/08:30am 25.8 E 5 8 1015.5 - - - - - - - - -
22/08:00am 24.1 E 5 6 1015.4 - - - - - - - - -
22/07:30am 23.1 E 5 7 1015.1 - - - - - - - - -

Other Formats:

Comma delimited format used in spreadsheet applications
http://www.bom.gov.au/fwo/IDD60701/IDD60701.94122.axf

JavaScript Object Notation format (JSON) in row-major order
http://www.bom.gov.au/fwo/IDD60701/IDD60701.94122.json